createdAt,value
2022-10-15T00:01:23.695Z,87.19
2022-10-15T00:03:50.979Z,85.42
2022-10-15T00:06:21.492Z,86.08
2022-10-15T00:08:49.073Z,85.56
2022-10-15T00:11:25.894Z,85.02
2022-10-15T00:13:56.570Z,85.87
2022-10-15T00:16:27.753Z,86.89
2022-10-15T00:18:59.536Z,86.47
2022-10-15T00:21:26.631Z,86.85
2022-10-15T00:23:53.634Z,87.67
2022-10-15T00:26:25.469Z,87.08
2022-10-15T00:28:55.741Z,87.85
2022-10-15T00:31:24.451Z,87.48
2022-10-15T00:33:54.685Z,87.29
2022-10-15T00:36:29.730Z,88.42
2022-10-15T00:38:57.653Z,87.57
2022-10-15T00:41:36.253Z,87.53
2022-10-15T00:44:25.733Z,89.48
2022-10-15T00:47:16.539Z,89.26
2022-10-15T00:50:09.043Z,88.73
2022-10-15T00:53:08.930Z,89.04
2022-10-15T00:55:43.086Z,88.68
2022-10-15T00:58:28.555Z,89.90
2022-10-15T01:00:56.261Z,90.31
2022-10-15T01:03:24.691Z,89.54
2022-10-15T01:06:06.175Z,89.91
2022-10-15T01:08:34.868Z,88.81
2022-10-15T01:11:34.280Z,90.57
2022-10-15T01:14:59.528Z,89.55
2022-10-15T01:17:45.075Z,91.20
2022-10-15T01:20:52.109Z,90.90
2022-10-15T01:24:38.367Z,91.16
2022-10-15T01:27:35.939Z,91.84
2022-10-15T01:30:25.581Z,90.62
2022-10-15T01:33:26.387Z,91.24
2022-10-15T01:36:24.460Z,90.82
2022-10-15T01:39:33.617Z,90.50
2022-10-15T01:42:21.264Z,90.70
2022-10-15T01:45:03.107Z,91.83
2022-10-15T01:47:48.531Z,90.91
2022-10-15T01:50:18.353Z,91.71
2022-10-15T01:52:46.173Z,91.66
2022-10-15T01:55:16.279Z,91.26
2022-10-15T01:57:46.125Z,91.11
2022-10-15T02:00:13.976Z,91.69
2022-10-15T02:02:41.458Z,93.36
2022-10-15T02:05:19.700Z,91.70
2022-10-15T02:08:48.053Z,91.86
2022-10-15T02:11:19.783Z,91.59
2022-10-15T02:14:10.423Z,91.49
2022-10-15T02:16:59.495Z,92.63
2022-10-15T02:22:53.165Z,91.50
2022-10-15T02:25:25.715Z,91.82
2022-10-15T02:27:56.928Z,92.17
2022-10-15T02:30:26.271Z,91.70
2022-10-15T02:32:58.337Z,92.54
2022-10-15T02:35:27.930Z,91.41
2022-10-15T02:37:59.575Z,89.80
2022-10-15T02:40:31.072Z,91.52
2022-10-15T02:43:00.405Z,90.46
2022-10-15T02:45:27.445Z,91.03
2022-10-15T02:47:54.385Z,91.25
2022-10-15T02:50:21.318Z,91.94
2022-10-15T02:52:48.253Z,90.53
2022-10-15T02:55:15.602Z,91.94
2022-10-15T02:57:42.528Z,91.90
2022-10-15T03:00:10.839Z,90.33
2022-10-15T03:02:41.350Z,92.21
2022-10-15T03:05:09.304Z,91.09
2022-10-15T03:07:37.201Z,90.48
2022-10-15T03:10:06.005Z,91.30
2022-10-15T03:12:33.400Z,90.81
2022-10-15T03:15:00.588Z,90.96
2022-10-15T03:17:27.771Z,91.12
2022-10-15T03:19:54.688Z,91.79
2022-10-15T03:22:21.671Z,90.88
2022-10-15T03:24:48.632Z,90.10
2022-10-15T03:27:15.588Z,91.19
2022-10-15T03:29:42.528Z,91.06
2022-10-15T03:32:09.507Z,90.80
2022-10-15T03:34:36.532Z,91.75
2022-10-15T03:37:03.495Z,91.42
2022-10-15T03:39:30.488Z,92.31
2022-10-15T03:41:57.544Z,92.00
2022-10-15T03:44:24.467Z,92.17
2022-10-15T03:46:51.757Z,91.45
2022-10-15T03:49:18.656Z,91.42
2022-10-15T03:51:45.632Z,91.68
2022-10-15T03:54:13.641Z,91.38
2022-10-15T03:56:40.607Z,90.89
2022-10-15T03:59:07.529Z,91.23
2022-10-15T04:01:34.523Z,91.66
2022-10-15T04:04:01.550Z,92.10
2022-10-15T04:06:28.538Z,92.17
2022-10-15T04:08:55.561Z,91.75
2022-10-15T04:11:22.583Z,91.60
2022-10-15T04:13:51.006Z,91.19
2022-10-15T04:16:18.575Z,92.47
2022-10-15T04:18:45.614Z,91.97
2022-10-15T04:21:12.630Z,90.09
2022-10-15T04:23:39.689Z,90.70
2022-10-15T04:26:07.074Z,91.94
2022-10-15T04:28:34.295Z,91.81
2022-10-15T04:31:02.622Z,90.83
2022-10-15T04:33:29.624Z,91.21
2022-10-15T04:36:08.337Z,91.31
2022-10-15T04:38:35.399Z,91.71
2022-10-15T04:41:10.073Z,90.39
2022-10-15T04:43:38.483Z,91.27
2022-10-15T04:46:08.176Z,91.42
2022-10-15T04:48:42.021Z,92.97
2022-10-15T04:51:18.810Z,92.78
2022-10-15T04:53:46.036Z,91.44
2022-10-15T04:56:17.897Z,90.90
2022-10-15T04:58:47.667Z,90.89
2022-10-15T05:01:19.338Z,91.97
2022-10-15T05:03:48.541Z,91.84
2022-10-15T05:06:21.607Z,91.86
2022-10-15T05:08:50.263Z,91.29
2022-10-15T05:11:26.884Z,90.70
2022-10-15T05:13:57.778Z,91.48
2022-10-15T05:16:29.147Z,92.46
2022-10-15T05:19:01.585Z,92.29
2022-10-15T05:21:31.072Z,91.31
2022-10-15T05:23:59.578Z,91.21
2022-10-15T05:26:29.568Z,91.41
2022-10-15T05:28:58.834Z,91.44
2022-10-15T05:31:30.177Z,91.96
2022-10-15T05:33:57.387Z,91.60
2022-10-15T05:36:28.392Z,92.21
2022-10-15T05:39:00.120Z,91.63
2022-10-15T05:41:29.320Z,90.86
2022-10-15T05:43:58.621Z,91.13
2022-10-15T05:46:26.337Z,91.40
2022-10-15T05:48:56.530Z,90.85
2022-10-15T05:51:26.487Z,91.57
2022-10-15T05:53:56.142Z,89.92
2022-10-15T05:56:23.878Z,90.72
2022-10-15T05:58:51.950Z,90.85
2022-10-15T06:01:20.093Z,91.16
2022-10-15T06:03:47.154Z,91.22
2022-10-15T06:06:26.477Z,90.56
2022-10-15T06:08:54.852Z,90.48
2022-10-15T06:11:22.703Z,91.25
2022-10-15T06:13:49.713Z,90.53
2022-10-15T06:16:21.148Z,90.00
2022-10-15T06:18:53.504Z,90.36
2022-10-15T06:21:20.913Z,89.15
2022-10-15T06:23:47.945Z,90.24
2022-10-15T06:26:14.859Z,89.75
2022-10-15T06:28:41.857Z,90.26
2022-10-15T06:31:09.185Z,90.07
2022-10-15T06:33:36.515Z,89.79
2022-10-15T06:36:10.537Z,90.89
2022-10-15T06:38:40.298Z,90.29
2022-10-15T06:41:08.324Z,90.64
2022-10-15T06:43:36.072Z,89.64
2022-10-15T06:46:05.592Z,90.07
2022-10-15T06:48:34.094Z,90.26
2022-10-15T06:51:02.479Z,88.93
2022-10-15T06:53:30.682Z,89.39
2022-10-15T06:56:02.838Z,89.34
2022-10-15T06:58:30.518Z,89.11
2022-10-15T07:01:03.236Z,88.84
2022-10-15T07:03:30.407Z,88.21
2022-10-15T07:06:03.619Z,88.36
2022-10-15T07:08:30.592Z,89.56
2022-10-15T07:10:57.511Z,89.27
2022-10-15T07:13:24.528Z,89.54
2022-10-15T07:15:54.006Z,89.07
2022-10-15T07:18:20.993Z,88.73
2022-10-15T07:20:48.045Z,88.08
2022-10-15T07:23:14.965Z,88.55
2022-10-15T07:25:41.911Z,88.69
2022-10-15T07:28:08.826Z,88.29
2022-10-15T07:30:35.893Z,88.32
2022-10-15T07:33:02.863Z,87.48
2022-10-15T07:35:29.906Z,86.64
2022-10-15T07:37:59.926Z,87.45
2022-10-15T07:40:26.851Z,87.09
2022-10-15T07:42:56.223Z,87.05
2022-10-15T07:45:24.578Z,86.62
2022-10-15T07:47:52.089Z,86.35
2022-10-15T07:50:21.246Z,86.88
2022-10-15T07:52:48.262Z,86.62
2022-10-15T07:55:15.211Z,86.16
2022-10-15T07:57:42.224Z,86.65
2022-10-15T08:00:10.281Z,86.73
2022-10-15T08:02:37.247Z,85.80
2022-10-15T08:05:04.753Z,85.35
2022-10-15T08:07:31.661Z,84.56
2022-10-15T08:09:58.625Z,84.13
2022-10-15T08:12:25.879Z,83.81
2022-10-15T08:14:53.307Z,82.91
2022-10-15T08:17:20.355Z,82.76
2022-10-15T08:19:47.894Z,82.64
2022-10-15T08:22:14.922Z,80.90
2022-10-15T08:24:41.857Z,81.74
2022-10-15T08:27:08.926Z,80.80
2022-10-15T08:29:35.860Z,80.83
2022-10-15T08:32:02.837Z,80.23
2022-10-15T08:34:29.775Z,82.43
2022-10-15T08:36:56.688Z,82.86
2022-10-15T08:39:23.839Z,82.77
2022-10-15T08:41:57.853Z,83.13
2022-10-15T08:44:50.233Z,82.73
2022-10-15T08:48:00.149Z,82.70
2022-10-15T08:50:43.236Z,81.71
2022-10-15T08:53:23.263Z,83.67
2022-10-15T08:55:57.117Z,83.05
2022-10-15T08:59:17.945Z,82.79
2022-10-15T09:01:58.420Z,83.73
2022-10-15T09:04:34.145Z,83.95
2022-10-15T09:07:23.917Z,82.06
2022-10-15T09:10:22.126Z,81.78
2022-10-15T09:13:04.662Z,80.46
2022-10-15T09:16:01.319Z,79.88
2022-10-15T09:18:33.625Z,79.83
2022-10-15T09:21:04.455Z,78.63
2022-10-15T09:23:35.411Z,78.58
2022-10-15T09:26:28.350Z,77.55
2022-10-15T09:29:22.355Z,77.15
2022-10-15T09:32:13.438Z,78.40
2022-10-15T09:35:00.458Z,77.35
2022-10-15T09:37:53.422Z,77.61
2022-10-15T09:40:49.208Z,76.14
2022-10-15T09:43:32.018Z,76.16
2022-10-15T09:46:01.534Z,74.74
2022-10-15T09:48:39.541Z,75.26
2022-10-15T09:51:46.505Z,74.21
2022-10-15T09:54:45.623Z,74.03
2022-10-15T09:57:15.276Z,75.42
2022-10-15T10:00:01.133Z,74.26
2022-10-15T10:02:29.669Z,75.14
2022-10-15T10:04:57.264Z,74.08
2022-10-15T10:07:39.796Z,74.24
2022-10-15T10:10:32.632Z,73.29
2022-10-15T10:12:59.783Z,71.48
2022-10-15T10:15:35.710Z,72.00
2022-10-15T10:18:06.663Z,72.09
2022-10-15T10:20:34.828Z,71.44
2022-10-15T10:23:24.352Z,71.47
2022-10-15T10:25:52.219Z,71.38
2022-10-15T10:28:44.838Z,71.64
2022-10-15T10:31:13.098Z,73.13
2022-10-15T10:33:40.378Z,72.92
2022-10-15T10:36:40.666Z,72.02
2022-10-15T10:39:14.240Z,72.11
2022-10-15T10:41:53.085Z,72.01
2022-10-15T10:44:48.213Z,71.62
2022-10-15T10:47:24.539Z,72.10
2022-10-15T10:49:57.405Z,71.90
2022-10-15T10:52:36.719Z,71.62
2022-10-15T10:55:25.192Z,72.05
2022-10-15T10:58:04.561Z,72.01
2022-10-15T11:01:03.060Z,72.51
2022-10-15T11:03:44.007Z,71.83
2022-10-15T11:06:45.248Z,72.33
2022-10-15T11:10:11.410Z,72.68
2022-10-15T11:13:35.027Z,71.93
2022-10-15T11:16:31.133Z,71.96
2022-10-15T11:20:00.055Z,72.61
2022-10-15T11:23:27.780Z,70.80
2022-10-15T11:26:25.042Z,71.40
2022-10-15T11:29:29.400Z,70.64
2022-10-15T11:32:47.767Z,69.92
2022-10-15T11:35:52.367Z,70.84
2022-10-15T11:38:42.356Z,69.68
2022-10-15T11:41:29.537Z,69.73
2022-10-15T11:44:31.086Z,69.88
2022-10-15T11:47:53.930Z,69.70
2022-10-15T11:50:45.025Z,70.21
2022-10-15T11:53:39.567Z,70.78
2022-10-15T11:56:38.736Z,70.73
2022-10-15T11:59:39.915Z,70.31
2022-10-15T12:02:30.781Z,71.44
2022-10-15T12:05:10.102Z,71.83
2022-10-15T12:07:46.760Z,72.56
2022-10-15T12:10:13.803Z,72.79
2022-10-15T12:13:05.522Z,73.37
2022-10-15T12:16:08.931Z,72.61
2022-10-15T12:18:55.610Z,70.98
2022-10-15T12:22:11.562Z,71.57
2022-10-15T12:24:38.495Z,71.81
2022-10-15T12:27:20.634Z,72.45
2022-10-15T12:30:20.801Z,72.09
2022-10-15T12:32:48.967Z,72.21
2022-10-15T12:35:15.934Z,71.42
2022-10-15T12:37:46.992Z,71.30
2022-10-15T12:40:30.294Z,71.26
2022-10-15T12:43:12.567Z,70.76
2022-10-15T12:45:51.221Z,68.92
2022-10-15T12:48:31.511Z,67.56
2022-10-15T12:51:31.548Z,67.48
2022-10-15T12:54:35.489Z,68.57
2022-10-15T12:57:36.202Z,68.41
2022-10-15T13:00:26.055Z,69.94
2022-10-15T13:02:56.092Z,70.21
2022-10-15T13:05:33.400Z,69.98
2022-10-15T13:08:05.282Z,69.37
2022-10-15T13:10:47.429Z,69.62
2022-10-15T13:13:23.559Z,69.32
2022-10-15T13:15:58.497Z,69.92
2022-10-15T13:18:28.947Z,69.61
2022-10-15T13:20:56.897Z,69.69
2022-10-15T13:23:35.717Z,68.82
2022-10-15T13:26:27.073Z,70.23
2022-10-15T13:28:58.442Z,69.82
2022-10-15T13:31:35.080Z,69.11
2022-10-15T13:34:35.522Z,69.89
2022-10-15T13:37:04.640Z,69.67
2022-10-15T13:39:40.084Z,70.74
2022-10-15T13:42:18.539Z,71.06
2022-10-15T13:45:12.136Z,70.53
2022-10-15T13:47:47.209Z,69.60
2022-10-15T13:50:27.058Z,69.68
2022-10-15T13:53:09.513Z,69.85
2022-10-15T13:55:48.297Z,70.90
2022-10-15T13:58:34.976Z,70.11
2022-10-15T14:01:23.683Z,70.94
2022-10-15T14:04:00.707Z,70.58
2022-10-15T14:06:38.224Z,70.35
2022-10-15T14:09:28.375Z,71.10
2022-10-15T14:12:00.565Z,72.96
2022-10-15T14:14:41.276Z,72.92
2022-10-15T14:17:17.455Z,73.60
2022-10-15T14:20:22.099Z,73.55
2022-10-15T14:22:49.461Z,73.20
2022-10-15T14:25:27.371Z,72.02
2022-10-15T14:27:54.791Z,71.99
2022-10-15T14:30:34.286Z,71.90
2022-10-15T14:33:01.237Z,71.46
2022-10-15T14:35:37.396Z,69.79
2022-10-15T14:38:16.968Z,71.33
2022-10-15T14:41:07.717Z,71.76
2022-10-15T14:43:37.295Z,71.84
2022-10-15T14:46:11.600Z,71.84
2022-10-15T14:48:42.886Z,72.73
2022-10-15T14:51:34.524Z,73.69
2022-10-15T14:54:01.816Z,74.18
2022-10-15T14:56:33.348Z,73.66
2022-10-15T14:59:01.172Z,73.71
2022-10-15T15:01:30.613Z,73.91
2022-10-15T15:03:57.672Z,74.29
2022-10-15T15:06:25.070Z,74.80
2022-10-15T15:08:52.867Z,74.31
2022-10-15T15:11:25.280Z,74.35
2022-10-15T15:13:53.173Z,75.14
2022-10-15T15:16:20.654Z,74.58
2022-10-15T15:18:48.829Z,74.84
2022-10-15T15:21:22.321Z,75.35
2022-10-15T15:23:50.419Z,75.92
2022-10-15T15:26:17.434Z,75.99
2022-10-15T15:28:44.501Z,76.08
2022-10-15T15:31:18.705Z,76.70
2022-10-15T15:33:48.557Z,77.49
2022-10-15T15:36:21.003Z,77.66
2022-10-15T15:38:51.055Z,77.63
2022-10-15T15:41:22.652Z,78.79
2022-10-15T15:43:50.584Z,78.26
2022-10-15T15:46:18.250Z,79.26
2022-10-15T15:48:47.561Z,79.70
2022-10-15T15:51:26.322Z,79.47
2022-10-15T15:53:53.435Z,79.66
2022-10-15T15:56:21.015Z,79.23
2022-10-15T15:58:50.170Z,79.98
2022-10-15T16:01:18.907Z,80.98
2022-10-15T16:03:46.079Z,81.04
2022-10-15T16:06:13.725Z,81.67
2022-10-15T16:08:40.914Z,82.05
2022-10-15T16:11:07.888Z,82.00
2022-10-15T16:13:35.239Z,82.81
2022-10-15T16:16:02.502Z,82.54
2022-10-15T16:18:29.603Z,82.37
2022-10-15T16:20:56.977Z,82.95
2022-10-15T16:23:23.921Z,82.18
2022-10-15T16:25:50.929Z,83.25
2022-10-15T16:28:18.533Z,82.75
2022-10-15T16:30:45.495Z,82.28
2022-10-15T16:33:12.750Z,83.31
2022-10-15T16:35:39.699Z,84.23
2022-10-15T16:38:06.738Z,85.08
2022-10-15T16:40:34.553Z,86.33
2022-10-15T16:43:01.596Z,85.48
2022-10-15T16:45:31.921Z,84.30
2022-10-15T16:47:59.053Z,85.33
2022-10-15T16:50:26.015Z,86.39
2022-10-15T16:52:53.307Z,86.93
2022-10-15T16:55:20.323Z,86.59
2022-10-15T16:57:47.241Z,86.05
2022-10-15T17:00:14.482Z,86.69
2022-10-15T17:02:41.422Z,87.95
2022-10-15T17:05:08.838Z,87.72
2022-10-15T17:07:36.066Z,86.86
2022-10-15T17:10:03.446Z,86.05
2022-10-15T17:12:30.461Z,87.52
2022-10-15T17:14:57.394Z,86.87
2022-10-15T17:17:24.354Z,86.84
2022-10-15T17:19:51.312Z,86.25
2022-10-15T17:22:18.652Z,87.29
2022-10-15T17:24:45.630Z,86.62
2022-10-15T17:27:12.576Z,87.66
2022-10-15T17:29:39.665Z,86.97
2022-10-15T17:32:06.629Z,87.85
2022-10-15T17:34:34.196Z,88.58
2022-10-15T17:37:02.021Z,88.50
2022-10-15T17:39:29.002Z,88.55
2022-10-15T17:41:55.950Z,87.44
2022-10-15T17:44:22.962Z,88.11
2022-10-15T17:46:53.117Z,88.21
2022-10-15T17:49:22.356Z,88.09
2022-10-15T17:51:49.289Z,88.02
2022-10-15T17:54:16.862Z,87.36
2022-10-15T17:56:44.254Z,88.40
2022-10-15T17:59:12.744Z,87.68
2022-10-15T18:01:59.843Z,87.73
2022-10-15T18:04:29.722Z,87.67
2022-10-15T18:06:57.024Z,88.48
2022-10-15T18:09:26.672Z,89.40
2022-10-15T18:11:53.644Z,88.76
2022-10-15T18:16:53.365Z,89.54
2022-10-15T18:19:20.633Z,89.94
2022-10-15T18:21:49.506Z,89.12
2022-10-15T18:24:21.371Z,89.17
2022-10-15T18:26:50.581Z,89.63
2022-10-15T18:29:17.685Z,90.30
2022-10-15T18:31:44.921Z,88.91
2022-10-15T18:34:11.942Z,90.01
2022-10-15T18:36:41.560Z,88.85
2022-10-15T18:39:09.502Z,88.15
2022-10-15T18:41:38.349Z,89.13
2022-10-15T18:44:18.282Z,87.87
2022-10-15T18:46:45.876Z,87.67
2022-10-15T18:49:16.913Z,88.34
2022-10-15T18:51:46.457Z,89.39
2022-10-15T18:54:14.444Z,88.37
2022-10-15T18:56:41.734Z,87.63
2022-10-15T18:59:08.820Z,87.72
2022-10-15T19:01:41.824Z,88.48
2022-10-15T19:04:18.738Z,87.64
2022-10-15T19:06:49.757Z,88.96
2022-10-15T19:09:26.250Z,88.15
2022-10-15T19:11:56.445Z,87.78
2022-10-15T19:14:28.096Z,89.62
2022-10-15T19:16:56.585Z,88.53
2022-10-15T19:19:25.104Z,88.82
2022-10-15T19:21:53.261Z,87.74
2022-10-15T19:24:21.811Z,87.07
2022-10-15T19:26:51.684Z,87.61
2022-10-15T19:29:20.178Z,89.62
2022-10-15T19:31:49.065Z,88.65
2022-10-15T19:34:16.345Z,88.49
2022-10-15T19:36:48.264Z,90.35
2022-10-15T19:39:21.339Z,87.68
2022-10-15T19:41:50.603Z,88.11
2022-10-15T19:44:24.704Z,89.35
2022-10-15T19:46:55.316Z,88.36
2022-10-15T19:49:22.922Z,88.29
2022-10-15T19:51:52.385Z,87.72
2022-10-15T19:54:19.419Z,87.50
2022-10-15T19:56:46.596Z,87.93
2022-10-15T19:59:14.451Z,88.00
2022-10-15T20:01:41.503Z,87.71
2022-10-15T20:04:08.649Z,87.14
2022-10-15T20:06:38.454Z,85.62
2022-10-15T20:09:07.167Z,87.72
2022-10-15T20:11:34.779Z,87.29
2022-10-15T20:14:02.508Z,86.88
2022-10-15T20:16:32.921Z,86.79
2022-10-15T20:19:04.180Z,87.07
2022-10-15T20:21:32.111Z,86.96
2022-10-15T20:23:59.857Z,85.98
2022-10-15T20:26:27.093Z,87.76
2022-10-15T20:28:54.201Z,86.80
2022-10-15T20:31:21.821Z,86.69
2022-10-15T20:33:48.823Z,87.58
2022-10-15T20:36:23.465Z,88.14
2022-10-15T20:38:59.286Z,87.96
2022-10-15T20:41:26.190Z,86.92
2022-10-15T20:43:56.612Z,87.23
2022-10-15T20:46:38.686Z,86.87
2022-10-15T20:49:15.337Z,86.17
2022-10-15T20:51:44.292Z,86.65
2022-10-15T20:54:14.139Z,86.23
2022-10-15T20:56:42.499Z,86.89
2022-10-15T20:59:09.869Z,87.22
2022-10-15T21:01:37.271Z,86.01
2022-10-15T21:04:05.211Z,86.53
2022-10-15T21:06:32.487Z,86.91
2022-10-15T21:08:59.472Z,86.63
2022-10-15T21:11:26.402Z,86.45
2022-10-15T21:13:53.986Z,86.36
2022-10-15T21:16:24.493Z,86.07
2022-10-15T21:18:54.671Z,85.96
2022-10-15T21:21:21.686Z,86.31
2022-10-15T21:23:48.645Z,86.00
2022-10-15T21:26:18.839Z,86.56
2022-10-15T21:28:46.290Z,86.24
2022-10-15T21:31:17.367Z,86.48
2022-10-15T21:33:44.978Z,86.70
2022-10-15T21:36:21.562Z,86.40
2022-10-15T21:39:03.589Z,86.77
2022-10-15T21:41:33.401Z,85.64
2022-10-15T21:44:02.433Z,87.52
2022-10-15T21:46:33.135Z,86.68
2022-10-15T21:49:01.558Z,87.56
2022-10-15T21:51:33.165Z,86.32
2022-10-15T21:54:01.819Z,87.95
2022-10-15T21:56:34.930Z,87.89
2022-10-15T21:59:02.348Z,87.28
2022-10-15T22:01:35.936Z,86.51
2022-10-15T22:04:07.989Z,88.28
2022-10-15T22:06:39.803Z,87.09
2022-10-15T22:09:07.806Z,86.64
2022-10-15T22:11:39.359Z,87.63
2022-10-15T22:14:13.602Z,87.67
2022-10-15T22:16:41.854Z,88.14
2022-10-15T22:19:14.055Z,87.46
2022-10-15T22:21:41.242Z,88.02
2022-10-15T22:24:20.519Z,87.54
2022-10-15T22:26:50.969Z,87.38
2022-10-15T22:29:33.025Z,87.37
2022-10-15T22:32:01.508Z,87.23
2022-10-15T22:34:28.489Z,86.99
2022-10-15T22:36:55.451Z,86.34
2022-10-15T22:39:22.382Z,88.18
2022-10-15T22:41:49.455Z,88.26
2022-10-15T22:44:20.760Z,87.85
2022-10-15T22:46:49.438Z,88.08
2022-10-15T22:49:20.287Z,88.93
2022-10-15T22:51:49.322Z,88.13
2022-10-15T22:54:19.979Z,89.46
2022-10-15T22:56:47.254Z,89.54
2022-10-15T22:59:15.379Z,89.07
2022-10-15T23:01:42.658Z,89.29
2022-10-15T23:04:14.870Z,88.73
2022-10-15T23:06:42.428Z,87.66
2022-10-15T23:09:17.188Z,88.89
2022-10-15T23:11:45.012Z,88.68
2022-10-15T23:14:15.282Z,89.04
2022-10-15T23:16:47.828Z,87.54
2022-10-15T23:19:21.801Z,86.90
2022-10-15T23:21:53.206Z,89.12
2022-10-15T23:24:23.692Z,88.99
2022-10-15T23:26:51.486Z,88.53
2022-10-15T23:29:25.111Z,87.12
2022-10-15T23:31:53.620Z,87.17
2022-10-15T23:34:25.373Z,88.60
2022-10-15T23:36:53.073Z,87.69
2022-10-15T23:39:26.758Z,87.42
2022-10-15T23:41:54.834Z,88.67
2022-10-15T23:44:25.484Z,88.37
2022-10-15T23:46:52.855Z,88.48
2022-10-15T23:49:19.849Z,88.87
2022-10-15T23:51:46.815Z,87.07
2022-10-15T23:54:18.062Z,87.96
2022-10-15T23:56:46.704Z,88.71
2022-10-15T23:59:14.461Z,87.37
